Time;durP1;ratioP1;P1;durP2;ratioP2;P2;SDS_P1;SDS_P2;PMS_P1;PMS_P2;Temp;Humidity;BMP_temperature;BMP_pressure;BME280_temperature;BME280_humidity;BME280_pressure;Samples;Min_cycle;Max_cycle;Signal;HPM_P1;HPM_P2
2023/07/02 00:00:28;;;;;;;2.33;2.22;;;;;;;;;;4949934;28;20042;-79
2023/07/02 00:02:53;;;;;;;2.92;2.72;;;;;;;;;;4957482;28;20070;-79
2023/07/02 00:05:19;;;;;;;3.05;2.55;;;;;;;;;;4949666;28;20023;-78
2023/07/02 00:07:44;;;;;;;2.55;2.35;;;;;;;;;;4957715;28;20036;-78
2023/07/02 00:10:10;;;;;;;2.80;2.55;;;;;;;;;;4946921;28;20078;-79
2023/07/02 00:12:36;;;;;;;3.30;2.65;;;;;;;;;;4938006;28;20106;-79
2023/07/02 00:15:01;;;;;;;3.83;2.60;;;;;;;;;;4938817;29;20062;-77
2023/07/02 00:17:27;;;;;;;2.67;2.47;;;;;;;;;;4941657;29;20118;-79
2023/07/02 00:19:52;;;;;;;2.90;2.20;;;;;;;;;;4945390;28;20135;-79
2023/07/02 00:22:17;;;;;;;2.92;2.33;;;;;;;;;;4956818;28;20118;-78
2023/07/02 00:24:43;;;;;;;2.33;2.05;;;;;;;;;;4949770;28;20122;-79
2023/07/02 00:27:08;;;;;;;1.83;1.73;;;;;;;;;;4952693;28;20023;-79
2023/07/02 00:29:34;;;;;;;1.75;1.65;;;;;;;;;;4938782;29;20028;-79
2023/07/02 00:31:59;;;;;;;4.65;2.15;;;;;;;;;;4946491;28;20094;-78
2023/07/02 00:34:24;;;;;;;1.70;1.60;;;;;;;;;;4949487;28;20033;-77
2023/07/02 00:36:50;;;;;;;1.88;1.77;;;;;;;;;;4942265;28;20032;-79
2023/07/02 00:39:17;;;;;;;2.38;1.70;;;;;;;;;;4957594;28;20071;-78
2023/07/02 00:41:46;;;;;;;1.65;1.55;;;;;;;;;;4941772;29;20122;-78
2023/07/02 00:44:12;;;;;;;2.15;1.70;;;;;;;;;;4946112;28;20250;-79
2023/07/02 00:46:37;;;;;;;2.13;1.80;;;;;;;;;;4937127;29;20035;-79
2023/07/02 00:49:04;;;;;;;1.77;1.67;;;;;;;;;;4945905;29;20032;-79
2023/07/02 00:51:30;;;;;;;6.63;1.92;;;;;;;;;;4943574;29;20031;-76
2023/07/02 00:53:57;;;;;;;1.63;1.52;;;;;;;;;;4947266;29;20046;-78
2023/07/02 00:56:24;;;;;;;1.63;1.52;;;;;;;;;;4945594;28;20036;-79
2023/07/02 00:58:51;;;;;;;1.58;1.48;;;;;;;;;;4945715;28;20032;-79
2023/07/02 01:01:25;;;;;;;1.67;1.58;;;;;;;;;;4938626;28;20403;-78
2023/07/02 01:03:54;;;;;;;1.58;1.48;;;;;;;;;;4936843;29;20034;-79
2023/07/02 01:06:24;;;;;;;1.25;1.25;;;;;;;;;;4946394;28;20039;-79
2023/07/02 01:09:01;;;;;;;3.13;1.40;;;;;;;;;;4938962;29;20023;-79
2023/07/02 01:11:29;;;;;;;3.20;1.48;;;;;;;;;;4938066;29;20043;-79
2023/07/02 01:14:01;;;;;;;1.50;1.40;;;;;;;;;;4936686;29;20076;-79
2023/07/02 01:16:27;;;;;;;1.75;1.50;;;;;;;;;;4945993;29;20035;-79
2023/07/02 01:18:54;;;;;;;1.70;1.60;;;;;;;;;;4937981;29;20391;-79
2023/07/02 01:21:21;;;;;;;1.80;1.70;;;;;;;;;;4938221;29;20038;-78
2023/07/02 01:23:47;;;;;;;1.60;1.50;;;;;;;;;;4938210;29;20023;-79
2023/07/02 01:26:12;;;;;;;1.58;1.48;;;;;;;;;;4937200;29;20095;-79
2023/07/02 01:28:38;;;;;;;1.80;1.70;;;;;;;;;;4936436;29;20074;-79
2023/07/02 01:31:05;;;;;;;1.60;1.50;;;;;;;;;;4938158;29;20118;-79
2023/07/02 01:33:30;;;;;;;1.52;1.42;;;;;;;;;;4949311;29;20031;-79
2023/07/02 01:35:55;;;;;;;1.40;1.35;;;;;;;;;;4956546;29;20027;-79
2023/07/02 01:38:22;;;;;;;1.45;1.35;;;;;;;;;;4955838;28;20035;-79
2023/07/02 01:40:47;;;;;;;1.70;1.60;;;;;;;;;;4956663;29;20043;-80
2023/07/02 01:43:12;;;;;;;1.58;1.48;;;;;;;;;;4961023;28;20114;-80
2023/07/02 01:45:38;;;;;;;1.73;1.40;;;;;;;;;;4960787;29;20031;-81
2023/07/02 01:48:03;;;;;;;1.67;1.58;;;;;;;;;;4962474;28;20030;-81
2023/07/02 01:50:29;;;;;;;2.10;1.60;;;;;;;;;;4960284;29;20023;-80
2023/07/02 01:52:54;;;;;;;1.80;1.40;;;;;;;;;;4961382;28;20035;-80
2023/07/02 01:55:19;;;;;;;4.60;1.58;;;;;;;;;;4961294;28;20074;-80
2023/07/02 01:57:45;;;;;;;1.60;1.50;;;;;;;;;;4960024;29;20114;-80
2023/07/02 02:00:11;;;;;;;1.77;1.67;;;;;;;;;;4959471;28;20081;-79
2023/07/02 02:02:36;;;;;;;2.03;1.90;;;;;;;;;;4961199;29;20027;-80
2023/07/02 02:05:02;;;;;;;2.50;1.52;;;;;;;;;;4959706;29;20094;-78
2023/07/02 02:07:27;;;;;;;1.90;1.80;;;;;;;;;;4955779;28;20036;-78
2023/07/02 02:09:52;;;;;;;3.72;2.30;;;;;;;;;;4948255;28;20043;-79
2023/07/02 02:12:17;;;;;;;1.77;1.67;;;;;;;;;;4939128;29;20035;-77
2023/07/02 02:14:43;;;;;;;2.53;2.33;;;;;;;;;;4939705;29;20031;-79
2023/07/02 02:17:08;;;;;;;2.70;2.50;;;;;;;;;;4943633;28;20032;-79
2023/07/02 02:19:33;;;;;;;2.65;2.45;;;;;;;;;;4954752;28;20038;-80
2023/07/02 02:21:59;;;;;;;4.97;2.28;;;;;;;;;;4949014;28;20069;-79
2023/07/02 02:24:24;;;;;;;3.35;2.80;;;;;;;;;;4950155;28;20176;-78
2023/07/02 02:26:49;;;;;;;4.15;2.60;;;;;;;;;;4949792;28;20023;-80
2023/07/02 02:29:14;;;;;;;7.97;2.80;;;;;;;;;;4940249;29;20103;-79
2023/07/02 02:31:40;;;;;;;2.53;2.30;;;;;;;;;;4950711;28;20042;-79
2023/07/02 02:34:05;;;;;;;2.75;2.55;;;;;;;;;;4948461;29;20118;-78
2023/07/02 02:36:30;;;;;;;9.15;2.47;;;;;;;;;;4957993;28;20027;-79
2023/07/02 02:38:56;;;;;;;2.33;2.17;;;;;;;;;;4944703;28;20059;-79
2023/07/02 02:41:21;;;;;;;2.75;2.50;;;;;;;;;;4941281;28;20043;-78
2023/07/02 02:43:46;;;;;;;2.90;2.70;;;;;;;;;;4941077;28;20031;-78
2023/07/02 02:46:12;;;;;;;3.03;2.65;;;;;;;;;;4939872;28;20036;-78
2023/07/02 02:48:37;;;;;;;5.47;3.03;;;;;;;;;;4942015;28;20039;-78
2023/07/02 02:51:03;;;;;;;2.58;2.42;;;;;;;;;;4948088;28;20027;-79
2023/07/02 02:53:28;;;;;;;2.75;2.55;;;;;;;;;;4948592;28;20546;-79
2023/07/02 02:55:53;;;;;;;3.67;2.33;;;;;;;;;;4948596;28;20046;-79
2023/07/02 02:58:18;;;;;;;4.78;2.90;;;;;;;;;;4951264;28;20497;-79
2023/07/02 03:00:45;;;;;;;2.65;2.45;;;;;;;;;;4945812;28;20062;-79
2023/07/02 03:03:12;;;;;;;4.00;2.90;;;;;;;;;;4940876;29;20024;-79
2023/07/02 03:05:37;;;;;;;3.72;3.00;;;;;;;;;;4950604;29;20030;-79
2023/07/02 03:08:03;;;;;;;3.25;2.95;;;;;;;;;;4940778;28;20039;-79
2023/07/02 03:10:28;;;;;;;6.22;2.83;;;;;;;;;;4951581;28;20140;-79
2023/07/02 03:12:53;;;;;;;3.83;2.83;;;;;;;;;;4951322;28;20498;-80
2023/07/02 03:15:19;;;;;;;4.72;3.28;;;;;;;;;;4948488;28;20023;-78
2023/07/02 03:17:44;;;;;;;4.13;3.25;;;;;;;;;;4941441;29;20501;-79
2023/07/02 03:20:10;;;;;;;4.93;3.63;;;;;;;;;;4960894;28;20036;-79
2023/07/02 03:22:37;;;;;;;4.05;3.30;;;;;;;;;;4946582;28;20076;-79
2023/07/02 03:25:03;;;;;;;4.53;3.63;;;;;;;;;;4946622;29;20043;-79
2023/07/02 03:27:28;;;;;;;4.32;3.72;;;;;;;;;;4944364;29;20524;-79
2023/07/02 03:29:54;;;;;;;4.18;3.83;;;;;;;;;;4941370;29;20027;-78
2023/07/02 03:32:19;;;;;;;5.38;3.50;;;;;;;;;;4941227;28;20039;-79
2023/07/02 03:34:44;;;;;;;4.38;3.80;;;;;;;;;;4945427;28;20027;-79
2023/07/02 03:37:10;;;;;;;5.00;3.55;;;;;;;;;;4939593;28;20498;-80
2023/07/02 03:39:35;;;;;;;5.95;4.18;;;;;;;;;;4938499;29;20032;-79
2023/07/02 03:42:00;;;;;;;4.10;3.70;;;;;;;;;;4938137;29;20027;-79
2023/07/02 03:44:26;;;;;;;5.93;3.80;;;;;;;;;;4940968;29;20035;-80
2023/07/02 03:46:51;;;;;;;3.97;3.58;;;;;;;;;;4947794;28;20039;-79
2023/07/02 03:49:16;;;;;;;4.25;3.70;;;;;;;;;;4944902;28;20046;-80
2023/07/02 03:51:41;;;;;;;4.05;3.65;;;;;;;;;;4939022;28;20028;-79
2023/07/02 03:54:07;;;;;;;4.72;4.10;;;;;;;;;;4949794;28;20114;-79
2023/07/02 03:56:32;;;;;;;4.93;3.88;;;;;;;;;;4938937;29;20027;-79
2023/07/02 03:58:57;;;;;;;4.32;3.90;;;;;;;;;;4946820;28;20044;-77
2023/07/02 04:01:23;;;;;;;5.32;4.28;;;;;;;;;;4956097;28;20522;-80
2023/07/02 04:03:49;;;;;;;4.68;4.15;;;;;;;;;;4952622;29;20090;-80
2023/07/02 04:06:15;;;;;;;4.35;3.95;;;;;;;;;;4948791;28;20046;-80
2023/07/02 04:08:40;;;;;;;3.80;3.47;;;;;;;;;;4940512;29;20023;-80
2023/07/02 04:11:06;;;;;;;6.68;3.92;;;;;;;;;;4947600;28;20043;-79
2023/07/02 04:13:31;;;;;;;5.00;3.50;;;;;;;;;;4945699;28;20114;-78
2023/07/02 04:15:57;;;;;;;6.95;3.80;;;;;;;;;;4939342;28;20075;-78
2023/07/02 04:18:22;;;;;;;4.70;3.45;;;;;;;;;;4940478;28;20103;-78
2023/07/02 04:20:47;;;;;;;5.35;3.90;;;;;;;;;;4940783;29;20059;-78
2023/07/02 04:23:13;;;;;;;4.40;4.00;;;;;;;;;;4940600;28;20028;-78
2023/07/02 04:25:38;;;;;;;6.18;4.57;;;;;;;;;;4940151;28;20036;-77
2023/07/02 04:28:03;;;;;;;8.30;4.75;;;;;;;;;;4940043;28;20036;-77
2023/07/02 04:30:28;;;;;;;9.75;4.55;;;;;;;;;;4939746;29;20034;-78
2023/07/02 04:32:54;;;;;;;5.68;4.45;;;;;;;;;;4940633;29;20447;-76
2023/07/02 04:35:19;;;;;;;5.75;4.25;;;;;;;;;;4940500;28;20115;-77
2023/07/02 04:37:45;;;;;;;7.85;4.65;;;;;;;;;;4940481;28;20091;-77
2023/07/02 04:40:10;;;;;;;5.55;4.18;;;;;;;;;;4936802;29;20042;-76
2023/07/02 04:42:39;;;;;;;8.35;5.03;;;;;;;;;;4939343;28;20039;-76
2023/07/02 04:45:06;;;;;;;8.13;4.20;;;;;;;;;;4941612;28;20023;-78
2023/07/02 04:47:31;;;;;;;6.45;4.88;;;;;;;;;;4936375;28;20043;-78
2023/07/02 04:49:57;;;;;;;4.90;4.38;;;;;;;;;;4942386;29;20043;-77
2023/07/02 04:52:22;;;;;;;5.82;4.97;;;;;;;;;;4938421;28;20055;-77
2023/07/02 04:54:48;;;;;;;8.68;5.03;;;;;;;;;;4946236;28;20039;-77
2023/07/02 04:57:14;;;;;;;11.60;5.75;;;;;;;;;;4947842;28;20385;-76
2023/07/02 04:59:41;;;;;;;8.48;5.00;;;;;;;;;;4941989;28;20460;-76
2023/07/02 05:02:06;;;;;;;6.65;4.97;;;;;;;;;;4942493;28;20498;-75
2023/07/02 05:04:31;;;;;;;7.53;5.38;;;;;;;;;;4945307;28;20034;-75
2023/07/02 05:06:56;;;;;;;8.85;5.85;;;;;;;;;;4939013;28;20036;-77
2023/07/02 05:09:22;;;;;;;10.98;5.38;;;;;;;;;;4936017;28;20049;-77
2023/07/02 05:11:47;;;;;;;10.20;5.45;;;;;;;;;;4948843;29;20094;-77
2023/07/02 05:14:13;;;;;;;7.55;5.45;;;;;;;;;;4938374;28;20601;-76
2023/07/02 05:16:39;;;;;;;7.07;5.15;;;;;;;;;;4946074;28;20059;-77
2023/07/02 05:19:04;;;;;;;8.40;5.07;;;;;;;;;;4947597;28;20094;-76
2023/07/02 05:21:29;;;;;;;8.70;5.35;;;;;;;;;;4955515;28;20039;-80
2023/07/02 05:23:55;;;;;;;5.75;4.50;;;;;;;;;;4954681;29;20078;-77
2023/07/02 05:26:20;;;;;;;5.82;4.53;;;;;;;;;;4954880;28;20127;-77
2023/07/02 05:28:45;;;;;;;5.43;4.18;;;;;;;;;;4954984;28;20046;-77
2023/07/02 05:31:10;;;;;;;3.88;3.53;;;;;;;;;;4955206;28;20038;-79
2023/07/02 05:33:36;;;;;;;5.78;3.60;;;;;;;;;;4956612;28;20494;-78
2023/07/02 05:36:01;;;;;;;4.22;3.60;;;;;;;;;;4958342;28;20098;-78
2023/07/02 05:38:27;;;;;;;4.07;3.67;;;;;;;;;;4957722;28;20430;-78
2023/07/02 05:40:52;;;;;;;4.53;3.78;;;;;;;;;;4956744;28;20494;-78
2023/07/02 05:43:18;;;;;;;4.32;3.58;;;;;;;;;;4957290;28;20031;-78
2023/07/02 05:45:43;;;;;;;3.90;3.53;;;;;;;;;;4957285;29;20498;-78
2023/07/02 05:48:08;;;;;;;4.97;3.00;;;;;;;;;;4958471;28;20027;-78
2023/07/02 05:50:33;;;;;;;3.53;3.03;;;;;;;;;;4959292;28;20019;-78
2023/07/02 05:52:59;;;;;;;6.45;3.20;;;;;;;;;;4956995;28;20371;-80
2023/07/02 05:55:24;;;;;;;3.30;2.75;;;;;;;;;;4958201;28;20039;-78
2023/07/02 05:57:49;;;;;;;3.50;2.55;;;;;;;;;;4958107;28;20101;-78
2023/07/02 06:00:15;;;;;;;2.78;2.58;;;;;;;;;;4958529;28;20035;-79
2023/07/02 06:02:40;;;;;;;2.60;2.40;;;;;;;;;;4959062;28;20114;-78
2023/07/02 06:05:06;;;;;;;2.80;2.42;;;;;;;;;;4956245;29;20023;-78
2023/07/02 06:07:31;;;;;;;5.03;2.30;;;;;;;;;;4956394;28;20118;-79
2023/07/02 06:09:57;;;;;;;3.20;2.30;;;;;;;;;;4955735;28;20032;-79
2023/07/02 06:12:22;;;;;;;2.47;2.28;;;;;;;;;;4954992;28;20064;-78
2023/07/02 06:14:48;;;;;;;4.05;2.28;;;;;;;;;;4954757;28;20055;-77
2023/07/02 06:17:14;;;;;;;2.40;2.20;;;;;;;;;;4955599;28;20047;-78
2023/07/02 06:19:39;;;;;;;3.45;2.20;;;;;;;;;;4953458;28;20043;-78
2023/07/02 06:22:04;;;;;;;2.05;1.88;;;;;;;;;;4957536;28;20055;-78
2023/07/02 06:24:30;;;;;;;2.05;1.88;;;;;;;;;;4957019;28;20407;-79
2023/07/02 06:26:56;;;;;;;2.38;2.00;;;;;;;;;;4958444;28;20132;-78
2023/07/02 06:29:23;;;;;;;2.25;1.98;;;;;;;;;;4960066;28;20031;-78
2023/07/02 06:31:48;;;;;;;2.47;2.28;;;;;;;;;;4963294;28;20082;-79
2023/07/02 06:34:14;;;;;;;4.00;2.28;;;;;;;;;;4962893;28;20036;-79
2023/07/02 06:36:39;;;;;;;5.38;2.22;;;;;;;;;;4963154;28;20023;-79
2023/07/02 06:39:05;;;;;;;2.00;1.90;;;;;;;;;;4961043;28;20106;-78
2023/07/02 06:41:30;;;;;;;2.55;2.30;;;;;;;;;;4962095;28;20110;-79
2023/07/02 06:43:55;;;;;;;7.70;2.47;;;;;;;;;;4960757;28;20035;-79
2023/07/02 06:46:21;;;;;;;2.10;1.88;;;;;;;;;;4959395;28;20028;-79
2023/07/02 06:48:46;;;;;;;3.17;2.70;;;;;;;;;;4959416;29;20583;-79
2023/07/02 06:51:14;;;;;;;2.53;2.33;;;;;;;;;;4959986;28;20496;-78
2023/07/02 06:53:42;;;;;;;2.60;2.40;;;;;;;;;;4959386;29;20035;-79
2023/07/02 06:56:09;;;;;;;3.22;2.35;;;;;;;;;;4960622;28;20098;-79
2023/07/02 06:58:34;;;;;;;3.17;2.88;;;;;;;;;;4960880;28;20035;-79
2023/07/02 07:01:00;;;;;;;3.33;3.03;;;;;;;;;;4957669;28;20580;-79
2023/07/02 07:03:25;;;;;;;4.05;3.65;;;;;;;;;;4946211;28;20035;-78
2023/07/02 07:05:50;;;;;;;3.28;2.97;;;;;;;;;;4945783;28;20111;-78
2023/07/02 07:08:16;;;;;;;4.15;3.58;;;;;;;;;;4959913;28;20036;-78
2023/07/02 07:10:41;;;;;;;9.20;3.90;;;;;;;;;;4960672;28;20035;-78
2023/07/02 07:13:06;;;;;;;3.78;3.38;;;;;;;;;;4960220;28;20028;-78
2023/07/02 07:15:34;;;;;;;5.32;3.92;;;;;;;;;;4960111;28;20031;-79
2023/07/02 07:18:00;;;;;;;4.25;3.45;;;;;;;;;;4959510;28;20023;-78
2023/07/02 07:20:25;;;;;;;6.10;4.32;;;;;;;;;;4959580;28;20565;-78
2023/07/02 07:22:51;;;;;;;4.93;4.10;;;;;;;;;;4959600;28;20043;-79
2023/07/02 07:25:16;;;;;;;5.93;4.60;;;;;;;;;;4959424;28;20039;-79
2023/07/02 07:27:41;;;;;;;6.25;4.63;;;;;;;;;;4958416;29;20031;-79
2023/07/02 07:30:07;;;;;;;7.63;4.75;;;;;;;;;;4949693;28;20031;-79
2023/07/02 07:32:32;;;;;;;5.63;4.30;;;;;;;;;;4944876;29;20430;-79
2023/07/02 07:34:58;;;;;;;14.75;5.25;;;;;;;;;;4950646;29;20050;-78
2023/07/02 07:37:25;;;;;;;9.45;5.05;;;;;;;;;;4949478;29;20517;-78
2023/07/02 07:39:50;;;;;;;5.30;4.70;;;;;;;;;;4938722;29;20040;-78
2023/07/02 07:42:16;;;;;;;8.40;5.32;;;;;;;;;;4942463;29;20040;-79
2023/07/02 07:44:42;;;;;;;10.45;4.80;;;;;;;;;;4949287;29;20035;-79
2023/07/02 07:47:07;;;;;;;9.05;4.57;;;;;;;;;;4944483;29;20040;-79
2023/07/02 07:49:32;;;;;;;5.22;4.10;;;;;;;;;;4952994;28;20066;-79
2023/07/02 07:51:58;;;;;;;9.15;5.05;;;;;;;;;;4954701;28;20043;-79
2023/07/02 07:54:24;;;;;;;8.00;5.20;;;;;;;;;;4963759;28;20114;-79
2023/07/02 07:56:50;;;;;;;9.18;5.63;;;;;;;;;;4943974;28;20058;-79
2023/07/02 07:59:15;;;;;;;23.35;6.63;;;;;;;;;;4948541;28;20036;-79
2023/07/02 08:01:40;;;;;;;8.80;5.50;;;;;;;;;;4954047;29;20031;-79
2023/07/02 08:04:06;;;;;;;9.18;6.07;;;;;;;;;;4938288;28;20032;-79
2023/07/02 08:06:31;;;;;;;11.38;6.15;;;;;;;;;;4946897;29;20043;-79
2023/07/02 08:08:57;;;;;;;8.80;5.82;;;;;;;;;;4944252;28;20028;-79
2023/07/02 08:11:22;;;;;;;9.93;6.32;;;;;;;;;;4943753;28;20135;-78
2023/07/02 08:13:47;;;;;;;11.00;6.68;;;;;;;;;;4948892;29;20118;-79
2023/07/02 08:16:13;;;;;;;10.10;6.70;;;;;;;;;;4950528;28;20055;-79
2023/07/02 08:18:38;;;;;;;9.82;6.70;;;;;;;;;;4947828;28;20095;-79
2023/07/02 08:21:06;;;;;;;10.85;6.32;;;;;;;;;;4949414;28;20024;-78
2023/07/02 08:23:31;;;;;;;13.20;7.20;;;;;;;;;;4952107;29;20496;-78
2023/07/02 08:25:56;;;;;;;10.57;6.72;;;;;;;;;;4938859;29;20050;-79
2023/07/02 08:28:22;;;;;;;13.02;6.57;;;;;;;;;;4949788;28;20059;-79
2023/07/02 08:30:47;;;;;;;11.80;6.88;;;;;;;;;;4946095;29;20040;-79
2023/07/02 08:33:12;;;;;;;13.02;6.57;;;;;;;;;;4948814;28;20030;-79
2023/07/02 08:35:37;;;;;;;9.57;6.72;;;;;;;;;;4949727;29;20095;-79
2023/07/02 08:38:03;;;;;;;13.15;7.95;;;;;;;;;;4946026;28;20032;-79
2023/07/02 08:40:28;;;;;;;14.68;7.70;;;;;;;;;;4942506;29;20063;-79
2023/07/02 08:42:54;;;;;;;14.35;7.60;;;;;;;;;;4944448;29;20110;-79
2023/07/02 08:45:20;;;;;;;17.42;7.80;;;;;;;;;;4945133;28;20114;-79
2023/07/02 08:47:45;;;;;;;15.43;8.18;;;;;;;;;;4942629;29;20028;-80
2023/07/02 08:50:12;;;;;;;15.35;7.57;;;;;;;;;;4939217;28;20059;-80
2023/07/02 08:52:38;;;;;;;14.63;7.45;;;;;;;;;;4946744;28;20050;-80
2023/07/02 08:55:03;;;;;;;11.38;7.88;;;;;;;;;;4940222;29;20048;-79
2023/07/02 08:57:29;;;;;;;14.75;8.75;;;;;;;;;;4951611;28;20118;-80
2023/07/02 08:59:54;;;;;;;17.55;8.90;;;;;;;;;;4941511;29;20047;-80
2023/07/02 09:02:32;;;;;;;16.52;9.05;;;;;;;;;;4941171;29;20390;-79
2023/07/02 09:05:03;;;;;;;16.23;9.48;;;;;;;;;;4938684;28;20035;-79
2023/07/02 09:07:29;;;;;;;19.20;9.10;;;;;;;;;;4937801;29;20046;-79
2023/07/02 09:09:55;;;;;;;18.48;9.45;;;;;;;;;;4938821;28;20048;-79
2023/07/02 09:12:25;;;;;;;23.92;9.90;;;;;;;;;;4950076;28;20465;-80
2023/07/02 09:14:58;;;;;;;19.52;10.45;;;;;;;;;;4938276;29;20023;-79
2023/07/02 09:17:31;;;;;;;16.83;10.68;;;;;;;;;;4937002;29;20043;-79
2023/07/02 09:20:00;;;;;;;19.17;10.18;;;;;;;;;;4941759;29;20035;-79
2023/07/02 09:22:25;;;;;;;17.45;10.07;;;;;;;;;;4943586;28;20043;-79
2023/07/02 09:24:57;;;;;;;18.17;10.80;;;;;;;;;;4955306;28;20050;-79
2023/07/02 09:27:33;;;;;;;18.67;10.57;;;;;;;;;;4944625;28;20047;-79
2023/07/02 09:30:05;;;;;;;19.95;10.90;;;;;;;;;;4944576;29;20046;-79
2023/07/02 09:32:31;;;;;;;18.92;10.30;;;;;;;;;;4944475;29;20087;-79
2023/07/02 09:34:57;;;;;;;21.52;10.13;;;;;;;;;;4951134;28;20048;-79
2023/07/02 09:37:23;;;;;;;21.02;10.07;;;;;;;;;;4950064;29;20031;-79
2023/07/02 09:39:51;;;;;;;24.40;11.80;;;;;;;;;;4944203;29;20042;-79
2023/07/02 09:42:19;;;;;;;21.30;11.63;;;;;;;;;;4944670;28;20377;-80
2023/07/02 09:44:45;;;;;;;20.50;11.65;;;;;;;;;;4941165;29;20020;-79
2023/07/02 09:47:12;;;;;;;20.00;10.70;;;;;;;;;;4948721;28;20036;-79
2023/07/02 09:49:39;;;;;;;27.48;12.18;;;;;;;;;;4942705;28;20098;-79
2023/07/02 09:52:09;;;;;;;22.23;11.18;;;;;;;;;;4943143;28;20451;-79
2023/07/02 09:54:35;;;;;;;22.33;11.80;;;;;;;;;;4944647;28;20051;-79
2023/07/02 09:57:02;;;;;;;20.33;11.88;;;;;;;;;;4943364;29;20031;-79
2023/07/02 09:59:28;;;;;;;23.15;11.48;;;;;;;;;;4947763;28;20043;-79
2023/07/02 10:01:53;;;;;;;22.65;11.90;;;;;;;;;;4938198;28;20040;-79
2023/07/02 10:04:20;;;;;;;20.42;10.55;;;;;;;;;;4941661;28;20440;-79
2023/07/02 10:06:52;;;;;;;23.65;10.95;;;;;;;;;;4941959;29;20027;-79
2023/07/02 10:09:21;;;;;;;20.08;10.20;;;;;;;;;;4942526;28;20027;-79
2023/07/02 10:11:46;;;;;;;18.27;10.07;;;;;;;;;;4943325;29;20356;-79
2023/07/02 10:14:12;;;;;;;19.80;10.82;;;;;;;;;;4952212;29;20032;-79
2023/07/02 10:16:54;;;;;;;23.60;10.68;;;;;;;;;;4957236;29;20462;-79
2023/07/02 10:19:19;;;;;;;21.15;10.73;;;;;;;;;;4941713;29;20060;-79
2023/07/02 10:21:50;;;;;;;23.08;11.23;;;;;;;;;;4950239;28;20142;-80
2023/07/02 10:24:17;;;;;;;21.77;10.82;;;;;;;;;;4942076;28;20043;-79
2023/07/02 10:26:56;;;;;;;16.73;9.07;;;;;;;;;;4942745;29;20545;-79
2023/07/02 10:29:24;;;;;;;22.83;11.18;;;;;;;;;;4941509;29;20039;-79
2023/07/02 10:31:53;;;;;;;18.48;10.23;;;;;;;;;;4942189;28;20505;-79
2023/07/02 10:34:32;;;;;;;17.80;10.32;;;;;;;;;;4941489;28;20123;-78
2023/07/02 10:36:59;;;;;;;21.50;10.45;;;;;;;;;;4943092;28;20108;-80
2023/07/02 10:39:24;;;;;;;26.25;11.10;;;;;;;;;;4941250;28;20035;-80
2023/07/02 10:41:50;;;;;;;18.17;9.57;;;;;;;;;;4941670;29;20024;-80
2023/07/02 10:44:15;;;;;;;18.63;10.23;;;;;;;;;;4942980;28;20036;-80
2023/07/02 10:46:48;;;;;;;19.55;10.18;;;;;;;;;;4942750;28;20032;-80
2023/07/02 10:49:17;;;;;;;14.93;9.93;;;;;;;;;;4942929;28;20398;-79
2023/07/02 10:51:43;;;;;;;17.67;10.75;;;;;;;;;;4950554;29;20047;-79
2023/07/02 10:54:08;;;;;;;19.00;10.55;;;;;;;;;;4944470;29;20497;-79
2023/07/02 10:56:34;;;;;;;19.17;10.95;;;;;;;;;;4952951;29;20019;-79
2023/07/02 10:59:00;;;;;;;16.17;9.43;;;;;;;;;;4950581;28;20039;-79
2023/07/02 11:01:30;;;;;;;18.48;9.88;;;;;;;;;;4943471;28;20039;-79
2023/07/02 11:04:04;;;;;;;15.73;9.63;;;;;;;;;;4943213;28;20046;-79
2023/07/02 11:06:32;;;;;;;15.52;8.75;;;;;;;;;;4954583;28;20206;-79
2023/07/02 11:08:59;;;;;;;14.18;8.68;;;;;;;;;;4953038;29;20251;-78
2023/07/02 11:11:25;;;;;;;15.95;10.00;;;;;;;;;;4957225;29;20442;-79
2023/07/02 11:13:52;;;;;;;13.60;9.02;;;;;;;;;;4949789;28;20036;-79
2023/07/02 11:16:26;;;;;;;20.45;9.10;;;;;;;;;;4953863;29;20051;-78
2023/07/02 11:19:07;;;;;;;17.02;9.15;;;;;;;;;;4958574;28;20026;-79
2023/07/02 11:21:32;;;;;;;13.98;8.43;;;;;;;;;;4970221;28;20036;-78
2023/07/02 11:24:06;;;;;;;16.90;9.13;;;;;;;;;;4940337;29;20095;-79
2023/07/02 11:26:36;;;;;;;;;;;;;;;;;;4941119;29;20052;-79
2023/07/02 11:29:01;;;;;;;11.70;6.82;;;;;;;;;;4949831;29;20316;-79
2023/07/02 11:31:27;;;;;;;16.02;8.68;;;;;;;;;;4950438;28;20028;-80
2023/07/02 11:33:52;;;;;;;12.18;7.43;;;;;;;;;;4959712;28;20038;-80
2023/07/02 11:36:26;;;;;;;13.13;8.32;;;;;;;;;;4962153;28;20035;-80
2023/07/02 11:38:55;;;;;;;11.13;7.90;;;;;;;;;;4962060;28;20070;-80
2023/07/02 11:41:21;;;;;;;13.50;8.45;;;;;;;;;;4947065;28;20032;-80
2023/07/02 11:43:47;;;;;;;12.25;7.57;;;;;;;;;;4942535;28;20067;-79
2023/07/02 11:46:13;;;;;;;18.52;8.60;;;;;;;;;;4941225;29;20491;-80
2023/07/02 11:48:38;;;;;;;9.57;7.20;;;;;;;;;;4941075;29;20031;-80
2023/07/02 11:51:03;;;;;;;13.13;7.95;;;;;;;;;;4941636;29;20023;-80
2023/07/02 11:53:29;;;;;;;14.85;7.72;;;;;;;;;;4941324;29;20037;-80
2023/07/02 11:55:54;;;;;;;13.30;7.57;;;;;;;;;;4940784;29;20050;-80
2023/07/02 11:58:19;;;;;;;12.07;8.05;;;;;;;;;;4938859;29;20032;-80
2023/07/02 12:00:44;;;;;;;9.50;5.43;;;;;;;;;;4941713;28;20027;-80
2023/07/02 12:03:10;;;;;;;10.85;6.85;;;;;;;;;;4934678;28;20024;-78
2023/07/02 12:05:35;;;;;;;11.55;6.63;;;;;;;;;;4937187;29;20016;-77
2023/07/02 12:08:02;;;;;;;9.68;6.28;;;;;;;;;;4939123;28;20035;-78
2023/07/02 12:10:27;;;;;;;11.07;6.82;;;;;;;;;;4937375;29;20028;-79
2023/07/02 12:12:52;;;;;;;14.55;7.53;;;;;;;;;;4937911;28;20510;-78
2023/07/02 12:15:18;;;;;;;8.73;6.15;;;;;;;;;;4938150;28;20066;-78
2023/07/02 12:17:43;;;;;;;9.63;6.53;;;;;;;;;;4937484;29;20016;-79
2023/07/02 12:20:09;;;;;;;11.20;6.70;;;;;;;;;;4942089;29;20030;-79
2023/07/02 12:22:34;;;;;;;14.70;7.15;;;;;;;;;;4949549;28;20043;-78
2023/07/02 12:24:59;;;;;;;18.25;7.65;;;;;;;;;;4957511;28;20028;-79
2023/07/02 12:27:26;;;;;;;9.20;6.20;;;;;;;;;;4957224;28;20031;-79
2023/07/02 12:29:52;;;;;;;12.50;7.25;;;;;;;;;;4957703;28;20122;-79
2023/07/02 12:32:17;;;;;;;10.48;6.97;;;;;;;;;;4958146;28;20120;-79
2023/07/02 12:34:42;;;;;;;11.75;8.00;;;;;;;;;;4955831;28;20034;-78
2023/07/02 12:37:08;;;;;;;9.25;7.00;;;;;;;;;;4956112;29;20433;-78
2023/07/02 12:39:33;;;;;;;13.75;7.72;;;;;;;;;;4956675;29;20402;-78
2023/07/02 12:42:00;;;;;;;9.82;6.22;;;;;;;;;;4945864;29;20102;-79
2023/07/02 12:44:25;;;;;;;10.13;6.25;;;;;;;;;;4937978;29;20024;-78
2023/07/02 12:46:50;;;;;;;9.88;6.05;;;;;;;;;;4938481;28;20097;-79
2023/07/02 12:49:16;;;;;;;8.57;5.78;;;;;;;;;;4952165;28;20030;-79
2023/07/02 12:51:41;;;;;;;8.98;5.85;;;;;;;;;;4948420;29;20512;-79
2023/07/02 12:54:06;;;;;;;9.00;6.20;;;;;;;;;;4955689;28;20027;-79
2023/07/02 12:56:31;;;;;;;12.10;6.57;;;;;;;;;;4956812;29;20549;-79
2023/07/02 12:58:57;;;;;;;12.65;6.47;;;;;;;;;;4957631;28;20226;-79
2023/07/02 13:01:23;;;;;;;10.10;5.82;;;;;;;;;;4957766;28;20031;-79
2023/07/02 13:03:49;;;;;;;8.43;5.70;;;;;;;;;;4955971;28;20035;-79
2023/07/02 13:06:14;;;;;;;12.50;6.65;;;;;;;;;;4955558;28;20047;-79
2023/07/02 13:08:40;;;;;;;7.90;5.93;;;;;;;;;;4957042;28;20023;-79
2023/07/02 13:11:05;;;;;;;9.25;6.05;;;;;;;;;;4950395;28;20040;-78
2023/07/02 13:13:30;;;;;;;9.02;5.85;;;;;;;;;;4940597;28;20039;-78
2023/07/02 13:15:56;;;;;;;9.48;5.80;;;;;;;;;;4937690;28;20495;-78
2023/07/02 13:18:21;;;;;;;10.82;5.65;;;;;;;;;;4938110;28;20085;-78
2023/07/02 13:20:46;;;;;;;9.23;6.10;;;;;;;;;;4951399;29;20487;-78
2023/07/02 13:23:12;;;;;;;9.20;6.05;;;;;;;;;;4937753;28;20036;-78
2023/07/02 13:25:37;;;;;;;7.78;5.57;;;;;;;;;;4937983;28;20526;-79
2023/07/02 13:28:03;;;;;;;7.22;5.45;;;;;;;;;;4936968;29;20036;-78
2023/07/02 13:30:30;;;;;;;15.10;5.97;;;;;;;;;;4937717;28;20107;-78
2023/07/02 13:32:56;;;;;;;10.05;6.57;;;;;;;;;;4937749;29;20401;-79
2023/07/02 13:35:22;;;;;;;7.55;5.47;;;;;;;;;;4936348;29;20040;-79
2023/07/02 13:37:48;;;;;;;8.57;5.88;;;;;;;;;;4952531;28;20405;-79
2023/07/02 13:40:15;;;;;;;10.10;6.25;;;;;;;;;;4941412;28;20127;-78
2023/07/02 13:42:41;;;;;;;9.63;5.80;;;;;;;;;;4941317;28;20032;-79
2023/07/02 13:45:08;;;;;;;8.05;5.50;;;;;;;;;;4940321;28;20046;-78
2023/07/02 13:47:34;;;;;;;7.57;5.72;;;;;;;;;;4940560;29;20039;-78
2023/07/02 13:49:59;;;;;;;8.38;5.75;;;;;;;;;;4956245;29;20044;-77
2023/07/02 13:52:24;;;;;;;11.60;5.97;;;;;;;;;;4941171;28;20063;-78
2023/07/02 13:54:50;;;;;;;10.88;6.07;;;;;;;;;;4939733;28;20043;-79
2023/07/02 13:57:15;;;;;;;14.50;6.03;;;;;;;;;;4946396;28;20031;-79
2023/07/02 13:59:40;;;;;;;10.95;5.70;;;;;;;;;;4944291;28;20043;-78
2023/07/02 14:02:06;;;;;;;7.93;4.32;;;;;;;;;;4940441;28;20028;-79
2023/07/02 14:04:31;;;;;;;7.80;5.32;;;;;;;;;;4955636;28;20118;-78
2023/07/02 14:06:57;;;;;;;7.25;5.50;;;;;;;;;;4959902;28;20040;-79
2023/07/02 14:09:22;;;;;;;5.82;4.47;;;;;;;;;;4958565;28;20122;-79
2023/07/02 14:11:47;;;;;;;8.80;5.20;;;;;;;;;;4960700;28;20035;-78
2023/07/02 14:14:13;;;;;;;7.20;4.95;;;;;;;;;;4950954;29;20089;-79
2023/07/02 14:16:38;;;;;;;6.93;4.32;;;;;;;;;;4950493;28;20065;-78
2023/07/02 14:19:03;;;;;;;5.93;4.75;;;;;;;;;;4953866;28;20028;-78
2023/07/02 14:21:29;;;;;;;8.57;4.90;;;;;;;;;;4953980;28;20031;-78
2023/07/02 14:23:54;;;;;;;7.03;4.28;;;;;;;;;;4958783;28;20029;-77
2023/07/02 14:26:19;;;;;;;7.97;4.50;;;;;;;;;;4958042;28;20117;-78
2023/07/02 14:28:45;;;;;;;6.05;4.75;;;;;;;;;;4958766;28;20402;-78
2023/07/02 14:31:10;;;;;;;6.53;4.53;;;;;;;;;;4958578;28;20569;-78